Latest Weather Observations for Kingaroy

IDQ60901

Issued at 3:21 pm EST Wednesday 6 May 2015 (issued every 10 minutes, with the page automatically refreshed every 10 minutes)

About weather observations | Map of Brisbane area stations | Latest observations for Brisbane area | Other Formats
Station Details ID: 040922 Name: KINGAROY AIRPORT Lat: -26.57 Lon: 151.84 Height: 433.67 m
Data from the previous 72 hours. | See also: Recent months at Kingaroy
Date/Time
EST
Tmp

°C
App
Tmp
°C
Dew
Point
°C
Rel
Hum
%
Delta-T

°C
Wind Press
QNH
hPa
Press
MSL
hPa
Rain
since
9 am
mm
Dir
 
Spd
km/h
Gust
km/h
Spd
kts
Gust
kts
06/03:00pm 27.7 23.9 7.5 28 11.0 SW 17 22 9 12 1014.9 1014.2 0.0
06/02:30pm 27.8 24.3 8.6 30 10.7 SW 17 24 9 13 1014.8 1014.1 0.0
06/02:00pm 27.8 25.3 9.6 32 10.3 SW 13 20 7 11 1014.9 1014.2 0.0
06/01:30pm 27.8 25.6 10.9 35 9.8 S 13 22 7 12 1014.9 1014.2 0.0
06/01:00pm 27.9 26.0 10.6 34 10.0 S 11 19 6 10 1015.1 1014.4 0.0
06/12:30pm 27.2 23.9 9.5 33 10.0 SSE 17 20 9 11 1015.3 1014.6 0.0
06/12:00pm 26.9 25.9 12.2 40 8.6 W 9 17 5 9 1015.7 1015.0 0.0
06/11:30am 25.8 23.8 11.6 41 8.2 SW 13 19 7 10 1016.1 1015.4 0.0
06/11:00am 25.9 23.9 11.6 40 8.3 S 13 19 7 10 1016.7 1016.0 0.0
06/10:30am 24.6 24.6 14.1 52 6.3 WSW 7 11 4 6 1016.9 1016.2 0.0
06/10:00am 23.2 23.4 14.7 58 5.1 WNW 7 11 4 6 1017.1 1016.4 0.0
06/09:30am 21.8 21.9 14.4 63 4.4 NW 7 11 4 6 1017.1 1016.4 0.0
06/09:00am 19.5 20.6 14.7 74 2.8 WNW 2 6 1 3 1017.1 1016.4 0.2
06/08:30am 17.7 19.0 14.0 79 2.2 CALM 0 0 0 0 1016.9 1016.2 0.2
06/08:00am 15.0 16.2 13.7 92 0.7 CALM 0 0 0 0 1016.8 1016.1 0.2
06/07:30am 12.2 12.8 11.9 98 0.2 CALM 0 0 0 0 1016.5 1015.7 0.2
06/07:00am 9.8 9.7 9.5 98 0.2 CALM 0 0 0 0 1016.4 1015.6 0.2
06/06:30am 9.5 9.3 9.0 97 0.3 CALM 0 0 0 0 1016.1 1015.4 0.2
06/06:00am 9.2 7.7 8.6 96 0.3 S 6 9 3 5 1015.7 1015.0 0.2
06/05:30am 9.7 9.5 9.2 97 0.3 CALM 0 0 0 0 1015.3 1014.6 0.2
06/05:00am 9.8 9.7 9.3 97 0.3 CALM 0 0 0 0 1015.0 1014.3 0.2
06/04:30am 9.8 9.6 9.2 96 0.3 CALM 0 0 0 0 1014.7 1014.0 0.2
06/04:00am 10.3 10.3 9.7 96 0.3 CALM 0 0 0 0 1014.6 1013.9 0.2
06/03:30am 10.2 10.1 9.4 95 0.4 CALM 0 0 0 0 1014.6 1013.9 0.2
06/03:00am 10.7 10.8 10.1 96 0.3 CALM 0 0 0 0 1014.4 1013.6 0.2
06/02:30am 10.7 10.7 9.9 95 0.4 CALM 0 4 0 2 1014.3 1013.5 0.2
06/02:00am 10.4 10.3 9.3 93 0.6 CALM 0 7 0 4 1014.5 1013.7 0.2
06/01:30am 11.0 11.1 10.2 95 0.4 CALM 0 0 0 0 1014.6 1013.9 0.2
06/01:00am 11.3 11.4 10.2 93 0.6 CALM 0 0 0 0 1015.0 1014.3 0.2
06/12:30am 11.6 11.8 10.7 94 0.5 CALM 0 0 0 0 1015.1 1014.4 0.2
06/12:00am 12.0 12.3 10.9 93 0.6 CALM 0 0 0 0 1015.3 1014.6 0.2
 
Date/Time
EST
Tmp

°C
App
Tmp
°C
Dew
Point
°C
Rel
Hum
%
Delta-T

°C
Wind Press
QNH
hPa
Press
MSL
hPa
Rain
since
9 am
mm
Dir
 
Spd
km/h
Gust
km/h
Spd
kts
Gust
kts
05/11:30pm 12.6 13.1 11.5 93 0.6 CALM 0 0 0 0 1015.2 1014.5 0.2
05/11:00pm 12.8 13.3 11.7 93 0.6 CALM 0 0 0 0 1015.2 1014.5 0.2
05/10:30pm 12.7 13.1 11.3 91 0.8 CALM 0 0 0 0 1015.2 1014.5 0.2
05/10:00pm 13.5 14.2 12.1 91 0.8 CALM 0 0 0 0 1015.0 1014.3 0.2
05/09:30pm 13.8 13.2 12.4 91 0.8 S 7 9 4 5 1014.9 1014.2 0.2
05/09:00pm 13.9 14.0 11.4 85 1.4 S 2 9 1 5 1014.9 1014.2 0.2
05/08:30pm 15.0 15.8 12.5 85 1.4 CALM 0 0 0 0 1014.7 1014.0 0.2
05/08:00pm 15.6 15.7 12.7 83 1.6 SSE 4 6 2 3 1014.4 1013.6 0.2
05/07:30pm 15.5 15.2 12.8 84 1.5 E 6 7 3 4 1014.1 1013.3 0.2
05/07:00pm 15.9 15.7 13.0 83 1.6 ESE 6 7 3 4 1013.7 1013.0 0.2
05/06:30pm 16.9 16.5 12.4 75 2.5 SE 6 7 3 4 1013.4 1012.7 0.2
05/06:00pm 19.0 18.5 12.0 64 4.0 WSW 6 6 3 3 1013.0 1012.3 0.2
05/05:30pm 22.1 21.2 11.5 51 6.0 WSW 7 11 4 6 1012.6 1011.9 0.2
05/05:00pm 23.9 22.5 10.9 44 7.4 WSW 9 11 5 6 1012.6 1011.9 0.2
05/04:30pm 25.0 22.7 10.5 40 8.2 W 13 19 7 10 1012.4 1011.6 0.2
05/04:00pm 25.6 22.9 10.2 38 8.7 WSW 15 22 8 12 1012.2 1011.4 0.2
05/03:30pm 26.3 23.4 10.9 38 8.8 W 17 22 9 12 1012.2 1011.4 0.2
05/03:00pm 26.4 23.6 10.1 36 9.3 WSW 15 24 8 13 1012.1 1011.3 0.2
05/02:30pm 26.6 23.2 9.0 33 9.8 W 17 28 9 15 1012.1 1011.3 0.2
05/02:00pm 26.4 24.3 11.3 39 8.7 WNW 13 20 7 11 1012.3 1011.5 0.2
05/01:30pm 26.2 24.9 13.7 46 7.5 W 13 24 7 13 1012.5 1011.7 0.2
05/01:00pm 25.9 25.8 15.0 51 6.7 WSW 9 17 5 9 1013.1 1012.4 0.2
05/12:30pm 25.4 25.0 14.2 50 6.8 WNW 9 19 5 10 1013.5 1012.8 0.2
05/12:00pm 24.2 23.8 15.1 56 5.6 WNW 11 19 6 10 1014.2 1013.4 0.2
05/11:30am 24.8 25.1 16.0 58 5.5 NNE 9 17 5 9 1014.8 1014.1 0.2
05/11:00am 23.5 24.0 15.5 60 4.9 NW 7 11 4 6 1015.3 1014.6 0.0
05/10:30am 22.7 22.9 15.8 65 4.2 NW 9 15 5 8 1015.7 1015.0 0.0
05/10:00am 21.7 22.1 16.4 72 3.3 NW 9 13 5 7 1016.0 1015.3 0.0
05/09:30am 19.9 19.8 16.0 78 2.4 NW 11 15 6 8 1016.2 1015.5 0.0
05/09:00am 18.7 20.3 15.9 84 1.7 NW 2 9 1 5 1016.4 1015.6 0.0
05/08:30am 16.9 18.7 15.4 91 0.9 CALM 0 0 0 0 1016.2 1015.5 0.0
05/08:00am 14.8 16.2 14.3 97 0.3 CALM 0 0 0 0 1016.0 1015.3 0.0
05/07:30am 12.4 13.1 12.2 99 0.1 CALM 0 0 0 0 1015.8 1015.1 0.0
05/07:00am 11.1 11.4 10.8 98 0.2 CALM 0 0 0 0 1015.5 1014.8 0.0
05/06:30am 10.8 11.0 10.5 98 0.2 CALM 0 0 0 0 1015.3 1014.6 0.0
05/06:00am 10.8 11.0 10.5 98 0.2 CALM 0 0 0 0 1015.3 1014.6 0.0
05/05:30am 10.7 10.8 10.2 97 0.3 CALM 0 0 0 0 1014.8 1014.1 0.0
05/05:00am 11.1 11.4 10.8 98 0.2 CALM 0 0 0 0 1014.7 1014.0 0.0
05/04:30am 11.5 11.9 11.2 98 0.2 CALM 0 0 0 0 1014.7 1014.0 0.0
05/04:00am 11.3 11.6 11.0 98 0.2 CALM 0 0 0 0 1014.7 1014.0 0.0
05/03:30am 11.4 11.7 10.9 97 0.3 CALM 0 0 0 0 1014.6 1013.9 0.0
05/03:00am 11.7 12.1 11.2 97 0.3 CALM 0 0 0 0 1014.8 1014.1 0.0
05/02:30am 11.7 12.1 11.1 96 0.3 CALM 0 0 0 0 1015.0 1014.3 0.0
05/02:00am 12.1 12.6 11.6 97 0.3 CALM 0 0 0 0 1015.0 1014.3 0.0
05/01:30am 12.4 13.0 11.8 96 0.3 CALM 0 0 0 0 1015.2 1014.5 0.0
05/01:00am 12.6 12.1 12.0 96 0.3 S 6 7 3 4 1015.5 1014.8 0.0
05/12:30am 12.6 13.1 11.5 93 0.6 CALM 0 0 0 0 1015.5 1014.8 0.0
05/12:00am 13.7 14.6 12.9 95 0.4 CALM 0 0 0 0 1015.8 1015.1 0.0
 
Date/Time
EST
Tmp

°C
App
Tmp
°C
Dew
Point
°C
Rel
Hum
%
Delta-T

°C
Wind Press
QNH
hPa
Press
MSL
hPa
Rain
since
9 am
mm
Dir
 
Spd
km/h
Gust
km/h
Spd
kts
Gust
kts
04/11:30pm 13.9 14.8 13.0 94 0.5 CALM 0 0 0 0 1015.8 1015.1 0.0
04/11:00pm 14.2 15.2 13.1 93 0.6 CALM 0 0 0 0 1016.0 1015.3 0.0
04/10:30pm 14.4 14.1 13.3 93 0.6 S 7 9 4 5 1016.2 1015.5 0.0
04/10:00pm 15.1 15.6 14.0 93 0.6 ESE 4 9 2 5 1016.2 1015.5 0.0
04/09:30pm 15.2 16.0 13.7 91 0.9 E 2 9 1 5 1016.2 1015.5 0.0
04/09:00pm 15.9 16.1 14.1 89 1.0 S 6 7 3 4 1015.8 1015.1 0.0
04/08:30pm 16.4 17.8 14.4 88 1.2 CALM 0 0 0 0 1015.7 1015.0 0.0
04/08:00pm 16.5 18.0 14.7 89 1.1 CALM 0 0 0 0 1015.5 1014.8 0.0
04/07:30pm 16.4 17.7 14.1 86 1.3 CALM 0 0 0 0 1015.2 1014.5 0.0
04/07:00pm 17.6 19.0 14.5 82 1.8 CALM 0 0 0 0 1014.9 1014.2 0.0
04/06:30pm 19.2 19.7 15.1 77 2.5 SE 6 9 3 5 1014.6 1013.9 0.0
04/06:00pm 19.9 20.3 15.3 75 2.8 SSE 7 9 4 5 1014.4 1013.6 0.0
04/05:30pm 20.5 21.1 15.7 74 2.9 S 7 9 4 5 1014.0 1013.2 0.0
04/05:00pm 22.3 22.2 14.9 63 4.5 SSW 9 11 5 6 1013.5 1012.8 0.0
04/04:30pm 24.2 22.8 14.6 55 5.8 SSW 15 19 8 10 1013.2 1012.5 0.0
04/04:00pm 25.2 23.8 14.6 51 6.4 SSE 15 17 8 9 1013.0 1012.3 0.0
04/03:30pm 24.5 23.8 14.3 53 6.1 S 11 15 6 8 1012.9 1012.2 0.0
04/03:00pm 24.4 22.9 14.2 53 6.1 S 15 19 8 10 1012.9 1012.2 0.0
04/02:30pm 25.8 26.1 14.9 51 6.7 WSW 7 9 4 5 1012.9 1012.2 0.0
04/02:00pm 25.2 24.1 14.3 50 6.6 SSE 13 19 7 10 1013.0 1012.3 0.0
04/01:30pm 24.2 24.9 14.6 55 5.8 SSW 4 11 2 6 1013.3 1012.6 0.0
04/01:00pm 24.9 24.3 14.7 53 6.2 SW 11 15 6 8 1013.5 1012.8 0.0
04/12:30pm 24.5 24.3 14.6 54 6.0 S 9 17 5 9 1014.1 1013.3 0.0
04/12:00pm 24.4 24.4 15.1 56 5.7 S 9 15 5 8 1014.6 1013.9 0.0
04/11:30am 24.5 24.5 16.2 60 5.2 S 11 20 6 11 1015.2 1014.5 0.0
04/11:00am 23.4 23.0 15.2 60 5.0 SSE 11 20 6 11 1015.5 1014.8 0.0
04/10:30am 22.8 21.7 15.4 63 4.5 SSW 15 20 8 11 1015.7 1015.0 0.0
04/10:00am 21.9 22.2 16.0 69 3.6 S 9 15 5 8 1015.9 1015.2 0.0
04/09:30am 19.9 21.5 16.9 83 1.9 WSW 4 7 2 4 1015.9 1015.2 0.0
04/09:00am 17.9 19.7 16.4 91 0.9 WNW 2 6 1 3 1016.0 1015.3 0.2
04/08:30am 15.5 17.2 15.2 98 0.2 CALM 0 0 0 0 1015.9 1015.2 0.2
04/08:00am 14.6 16.0 14.4 99 0.1 CALM 0 0 0 0 1015.6 1014.9 0.2
04/07:30am 13.1 14.0 12.9 99 0.1 CALM 0 0 0 0 1015.5 1014.8 0.2
04/07:00am 12.2 12.8 12.0 99 0.1 CALM 0 0 0 0 1015.3 1014.6 0.2
04/06:30am 11.9 12.4 11.6 98 0.2 CALM 0 0 0 0 1014.8 1014.1 0.2
04/06:00am 11.7 12.1 11.4 98 0.2 CALM 0 0 0 0 1014.6 1013.9 0.2
04/05:30am 11.5 11.0 10.9 96 0.3 SSE 4 9 2 5 1014.3 1013.5 0.2
04/05:00am 12.3 12.9 11.8 97 0.3 CALM 0 0 0 0 1014.1 1013.3 0.2
04/04:30am 12.7 13.4 12.2 97 0.3 CALM 0 0 0 0 1014.1 1013.3 0.2
04/04:00am 12.9 13.6 12.1 95 0.4 CALM 0 0 0 0 1014.0 1013.2 0.2
04/03:30am 13.7 14.8 13.4 98 0.2 CALM 0 0 0 0 1013.7 1013.0 0.2
04/03:00am 13.9 13.9 13.7 99 0.1 E 6 7 3 4 1014.0 1013.2 0.2
04/02:30am 12.8 13.6 12.5 98 0.2 CALM 0 0 0 0 1014.0 1013.2 0.2
04/02:00am 12.1 12.6 11.5 96 0.3 CALM 0 0 0 0 1014.3 1013.5 0.2
04/01:30am 12.5 13.1 11.9 96 0.3 CALM 0 0 0 0 1014.4 1013.6 0.2
04/01:00am 12.9 13.7 12.4 97 0.3 CALM 0 0 0 0 1014.5 1013.7 0.2
04/12:30am 12.8 13.5 12.2 96 0.3 CALM 0 0 0 0 1014.5 1013.7 0.2
04/12:00am 13.3 14.1 12.5 95 0.4 CALM 0 0 0 0 1014.6 1013.9 0.2
 
Date/Time
EST
Tmp

°C
App
Tmp
°C
Dew
Point
°C
Rel
Hum
%
Delta-T

°C
Wind Press
QNH
hPa
Press
MSL
hPa
Rain
since
9 am
mm
Dir
 
Spd
km/h
Gust
km/h
Spd
kts
Gust
kts
03/11:30pm 13.4 14.2 12.6 95 0.4 CALM 0 0 0 0 1014.7 1014.0 0.2
03/11:00pm 13.6 14.5 12.8 95 0.4 CALM 0 0 0 0 1014.8 1014.1 0.2
03/10:30pm 14.1 15.1 13.1 94 0.6 CALM 0 6 0 3 1015.1 1014.4 0.2
03/10:00pm 14.5 15.6 13.4 93 0.6 CALM 0 0 0 0 1015.1 1014.4 0.2
03/09:30pm 15.1 16.3 13.8 92 0.7 CALM 0 0 0 0 1015.2 1014.5 0.2
03/09:00pm 15.7 17.0 14.1 90 0.9 CALM 0 0 0 0 1015.1 1014.4 0.2
03/08:30pm 16.2 17.7 14.6 90 0.9 CALM 0 0 0 0 1015.0 1014.3 0.2
03/08:00pm 16.8 18.1 14.1 84 1.6 CALM 0 0 0 0 1014.9 1014.2 0.2
03/07:30pm 18.4 19.3 15.1 81 2.0 WNW 4 7 2 4 1014.7 1014.0 0.2
03/07:00pm 19.0 20.7 15.3 79 2.2 CALM 0 0 0 0 1014.5 1013.7 0.2
03/06:30pm 19.0 20.9 15.7 81 2.0 CALM 0 0 0 0 1014.2 1013.4 0.2
03/06:00pm 19.4 21.3 15.7 79 2.2 CALM 0 0 0 0 1013.7 1013.0 0.2
03/05:30pm 19.8 20.4 15.4 76 2.7 WSW 6 7 3 4 1013.1 1012.4 0.2
03/05:00pm 20.3 20.7 15.3 73 3.0 WSW 7 11 4 6 1013.0 1012.3 0.2
03/04:30pm 20.7 20.8 15.5 72 3.1 W 9 15 5 8 1012.9 1012.2 0.2
03/04:00pm 21.4 19.8 15.0 67 3.9 WSW 17 22 9 12 1012.7 1012.0 0.2
03/03:30pm 21.6 20.0 15.0 66 4.0 SW 17 22 9 12 1012.6 1011.9 0.2

Latest Capital City Observations: Canberra | Sydney | Melbourne | Brisbane | Adelaide | Perth | Hobart | Darwin

Other Formats:

Comma delimited format used in spreadsheet applications
http://www.bom.gov.au/fwo/IDQ60901/IDQ60901.94549.axf

JavaScript Object Notation format (JSON) in row-major order
http://www.bom.gov.au/fwo/IDQ60901/IDQ60901.94549.json